sensor_id;sensor_type;location;lat;lon;timestamp;temperature;humidity
72814;DHT22;60945;48.516;-2.768;2022-08-25T00:00:29;20.20;80.10
72814;DHT22;60945;48.516;-2.768;2022-08-25T00:02:56;20.20;80.10
72814;DHT22;60945;48.516;-2.768;2022-08-25T00:05:25;20.10;80.20
72814;DHT22;60945;48.516;-2.768;2022-08-25T00:07:52;20.10;80.10
72814;DHT22;60945;48.516;-2.768;2022-08-25T00:10:17;20.10;80.40
72814;DHT22;60945;48.516;-2.768;2022-08-25T00:12:43;20.00;80.70
72814;DHT22;60945;48.516;-2.768;2022-08-25T00:15:08;20.00;80.50
72814;DHT22;60945;48.516;-2.768;2022-08-25T00:17:35;19.90;80.70
72814;DHT22;60945;48.516;-2.768;2022-08-25T00:20:01;20.00;80.60
72814;DHT22;60945;48.516;-2.768;2022-08-25T00:22:26;20.00;80.80
72814;DHT22;60945;48.516;-2.768;2022-08-25T00:24:53;19.90;81.20
72814;DHT22;60945;48.516;-2.768;2022-08-25T00:27:18;19.80;81.70
72814;DHT22;60945;48.516;-2.768;2022-08-25T00:29:44;19.70;81.90
72814;DHT22;60945;48.516;-2.768;2022-08-25T00:32:10;19.80;82.00
72814;DHT22;60945;48.516;-2.768;2022-08-25T00:34:37;19.80;81.80
72814;DHT22;60945;48.516;-2.768;2022-08-25T00:37:04;19.80;81.90
72814;DHT22;60945;48.516;-2.768;2022-08-25T00:39:32;19.80;82.10
72814;DHT22;60945;48.516;-2.768;2022-08-25T00:42:00;19.90;81.90
72814;DHT22;60945;48.516;-2.768;2022-08-25T00:44:28;19.90;81.70
72814;DHT22;60945;48.516;-2.768;2022-08-25T00:46:55;20.00;81.40
72814;DHT22;60945;48.516;-2.768;2022-08-25T00:49:50;20.00;81.50
72814;DHT22;60945;48.516;-2.768;2022-08-25T00:52:31;20.00;81.50
72814;DHT22;60945;48.516;-2.768;2022-08-25T00:55:03;20.00;81.40
72814;DHT22;60945;48.516;-2.768;2022-08-25T00:57:33;20.00;81.20
72814;DHT22;60945;48.516;-2.768;2022-08-25T00:59:59;19.90;81.50
72814;DHT22;60945;48.516;-2.768;2022-08-25T01:02:26;19.90;81.70
72814;DHT22;60945;48.516;-2.768;2022-08-25T01:04:52;19.90;81.60
72814;DHT22;60945;48.516;-2.768;2022-08-25T01:07:18;20.00;81.50
72814;DHT22;60945;48.516;-2.768;2022-08-25T01:09:47;20.00;81.40
72814;DHT22;60945;48.516;-2.768;2022-08-25T01:12:15;20.00;80.90
72814;DHT22;60945;48.516;-2.768;2022-08-25T01:14:43;20.00;81.10
72814;DHT22;60945;48.516;-2.768;2022-08-25T01:17:10;20.00;81.50
72814;DHT22;60945;48.516;-2.768;2022-08-25T01:19:35;19.90;81.60
72814;DHT22;60945;48.516;-2.768;2022-08-25T01:22:02;19.90;81.90
72814;DHT22;60945;48.516;-2.768;2022-08-25T01:24:31;19.90;81.70
72814;DHT22;60945;48.516;-2.768;2022-08-25T01:26:59;19.90;82.10
72814;DHT22;60945;48.516;-2.768;2022-08-25T01:29:26;19.80;81.80
72814;DHT22;60945;48.516;-2.768;2022-08-25T01:31:55;19.90;81.90
72814;DHT22;60945;48.516;-2.768;2022-08-25T01:34:27;19.80;81.90
72814;DHT22;60945;48.516;-2.768;2022-08-25T01:36:55;19.70;82.10
72814;DHT22;60945;48.516;-2.768;2022-08-25T01:39:22;19.70;82.20
72814;DHT22;60945;48.516;-2.768;2022-08-25T01:44:14;19.70;81.90
72814;DHT22;60945;48.516;-2.768;2022-08-25T01:46:40;19.70;82.10
72814;DHT22;60945;48.516;-2.768;2022-08-25T01:49:06;19.70;82.30
72814;DHT22;60945;48.516;-2.768;2022-08-25T01:51:42;19.60;82.50
72814;DHT22;60945;48.516;-2.768;2022-08-25T01:54:08;19.50;82.80
72814;DHT22;60945;48.516;-2.768;2022-08-25T01:56:34;19.40;83.30
72814;DHT22;60945;48.516;-2.768;2022-08-25T01:59:00;19.60;83.00
72814;DHT22;60945;48.516;-2.768;2022-08-25T02:01:26;19.60;82.40
72814;DHT22;60945;48.516;-2.768;2022-08-25T02:03:53;19.50;82.50
72814;DHT22;60945;48.516;-2.768;2022-08-25T02:06:30;19.50;82.70
72814;DHT22;60945;48.516;-2.768;2022-08-25T02:09:20;19.50;82.70
72814;DHT22;60945;48.516;-2.768;2022-08-25T02:11:46;19.60;82.20
72814;DHT22;60945;48.516;-2.768;2022-08-25T02:14:13;19.70;81.90
72814;DHT22;60945;48.516;-2.768;2022-08-25T02:16:41;19.70;81.50
72814;DHT22;60945;48.516;-2.768;2022-08-25T02:19:10;19.60;82.10
72814;DHT22;60945;48.516;-2.768;2022-08-25T02:21:39;19.50;82.70
72814;DHT22;60945;48.516;-2.768;2022-08-25T02:24:04;19.50;82.50
72814;DHT22;60945;48.516;-2.768;2022-08-25T02:26:31;19.60;82.10
72814;DHT22;60945;48.516;-2.768;2022-08-25T02:28:57;19.70;82.20
72814;DHT22;60945;48.516;-2.768;2022-08-25T02:31:24;19.60;82.20
72814;DHT22;60945;48.516;-2.768;2022-08-25T02:33:51;19.50;82.90
72814;DHT22;60945;48.516;-2.768;2022-08-25T02:36:18;19.50;82.40
72814;DHT22;60945;48.516;-2.768;2022-08-25T02:38:44;19.50;82.60
72814;DHT22;60945;48.516;-2.768;2022-08-25T02:41:16;19.60;82.40
72814;DHT22;60945;48.516;-2.768;2022-08-25T02:43:43;19.60;82.60
72814;DHT22;60945;48.516;-2.768;2022-08-25T02:46:09;19.60;82.70
72814;DHT22;60945;48.516;-2.768;2022-08-25T02:48:36;19.70;82.60
72814;DHT22;60945;48.516;-2.768;2022-08-25T02:51:03;19.70;82.60
72814;DHT22;60945;48.516;-2.768;2022-08-25T02:53:31;19.60;83.00
72814;DHT22;60945;48.516;-2.768;2022-08-25T02:55:57;19.70;82.60
72814;DHT22;60945;48.516;-2.768;2022-08-25T02:58:23;19.70;82.70
72814;DHT22;60945;48.516;-2.768;2022-08-25T03:00:50;19.70;82.70
72814;DHT22;60945;48.516;-2.768;2022-08-25T03:03:16;19.60;83.30
72814;DHT22;60945;48.516;-2.768;2022-08-25T03:05:42;19.70;83.10
72814;DHT22;60945;48.516;-2.768;2022-08-25T03:08:08;19.60;83.40
72814;DHT22;60945;48.516;-2.768;2022-08-25T03:10:34;19.70;83.20
72814;DHT22;60945;48.516;-2.768;2022-08-25T03:13:00;19.70;83.60
72814;DHT22;60945;48.516;-2.768;2022-08-25T03:15:25;19.60;83.60
72814;DHT22;60945;48.516;-2.768;2022-08-25T03:17:53;19.60;83.50
72814;DHT22;60945;48.516;-2.768;2022-08-25T03:20:20;19.50;83.90
72814;DHT22;60945;48.516;-2.768;2022-08-25T03:22:46;19.50;84.00
72814;DHT22;60945;48.516;-2.768;2022-08-25T03:25:13;19.60;83.70
72814;DHT22;60945;48.516;-2.768;2022-08-25T03:27:57;19.70;83.60
72814;DHT22;60945;48.516;-2.768;2022-08-25T03:30:23;19.50;83.60
72814;DHT22;60945;48.516;-2.768;2022-08-25T03:32:49;19.50;84.00
72814;DHT22;60945;48.516;-2.768;2022-08-25T03:35:14;19.50;83.70
72814;DHT22;60945;48.516;-2.768;2022-08-25T03:37:40;19.50;83.90
72814;DHT22;60945;48.516;-2.768;2022-08-25T03:40:09;19.60;84.00
72814;DHT22;60945;48.516;-2.768;2022-08-25T03:42:39;19.60;83.60
72814;DHT22;60945;48.516;-2.768;2022-08-25T03:45:06;19.60;83.70
72814;DHT22;60945;48.516;-2.768;2022-08-25T03:47:32;19.40;84.50
72814;DHT22;60945;48.516;-2.768;2022-08-25T03:50:01;19.50;84.40
72814;DHT22;60945;48.516;-2.768;2022-08-25T03:52:27;19.50;84.10
72814;DHT22;60945;48.516;-2.768;2022-08-25T03:54:52;19.50;84.00
72814;DHT22;60945;48.516;-2.768;2022-08-25T03:57:18;19.30;84.30
72814;DHT22;60945;48.516;-2.768;2022-08-25T03:59:45;19.20;85.00
72814;DHT22;60945;48.516;-2.768;2022-08-25T04:02:10;19.20;85.00
72814;DHT22;60945;48.516;-2.768;2022-08-25T04:04:36;19.30;84.80
72814;DHT22;60945;48.516;-2.768;2022-08-25T04:07:02;19.30;84.70
72814;DHT22;60945;48.516;-2.768;2022-08-25T04:09:27;19.30;84.80
72814;DHT22;60945;48.516;-2.768;2022-08-25T04:11:53;19.20;85.10
72814;DHT22;60945;48.516;-2.768;2022-08-25T04:14:19;19.30;85.40
72814;DHT22;60945;48.516;-2.768;2022-08-25T04:16:45;19.30;85.40
72814;DHT22;60945;48.516;-2.768;2022-08-25T04:19:11;19.30;85.60
72814;DHT22;60945;48.516;-2.768;2022-08-25T04:21:38;19.30;85.40
72814;DHT22;60945;48.516;-2.768;2022-08-25T04:24:06;19.30;85.80
72814;DHT22;60945;48.516;-2.768;2022-08-25T04:26:35;19.40;85.10
72814;DHT22;60945;48.516;-2.768;2022-08-25T04:29:03;19.40;84.90
72814;DHT22;60945;48.516;-2.768;2022-08-25T04:31:30;19.30;85.30
72814;DHT22;60945;48.516;-2.768;2022-08-25T04:33:56;19.40;85.00
72814;DHT22;60945;48.516;-2.768;2022-08-25T04:36:23;19.50;84.60
72814;DHT22;60945;48.516;-2.768;2022-08-25T04:38:49;19.50;84.50
72814;DHT22;60945;48.516;-2.768;2022-08-25T04:41:17;19.40;84.80
72814;DHT22;60945;48.516;-2.768;2022-08-25T04:43:43;19.40;84.40
72814;DHT22;60945;48.516;-2.768;2022-08-25T04:46:30;19.40;84.30
72814;DHT22;60945;48.516;-2.768;2022-08-25T04:48:57;19.40;83.90
72814;DHT22;60945;48.516;-2.768;2022-08-25T04:51:26;19.30;84.20
72814;DHT22;60945;48.516;-2.768;2022-08-25T04:53:53;19.20;84.30
72814;DHT22;60945;48.516;-2.768;2022-08-25T04:56:20;19.20;84.40
72814;DHT22;60945;48.516;-2.768;2022-08-25T04:58:46;19.20;84.40
72814;DHT22;60945;48.516;-2.768;2022-08-25T05:01:14;19.20;83.90
72814;DHT22;60945;48.516;-2.768;2022-08-25T05:03:41;19.20;84.20
72814;DHT22;60945;48.516;-2.768;2022-08-25T05:06:07;19.20;84.50
72814;DHT22;60945;48.516;-2.768;2022-08-25T05:08:33;19.20;84.50
72814;DHT22;60945;48.516;-2.768;2022-08-25T05:11:04;19.20;84.30
72814;DHT22;60945;48.516;-2.768;2022-08-25T05:13:30;19.20;84.40
72814;DHT22;60945;48.516;-2.768;2022-08-25T05:15:57;19.20;84.40
72814;DHT22;60945;48.516;-2.768;2022-08-25T05:18:25;19.30;83.80
72814;DHT22;60945;48.516;-2.768;2022-08-25T05:20:52;19.30;84.10
72814;DHT22;60945;48.516;-2.768;2022-08-25T05:23:22;19.20;84.10
72814;DHT22;60945;48.516;-2.768;2022-08-25T05:25:49;19.20;84.00
72814;DHT22;60945;48.516;-2.768;2022-08-25T05:28:16;19.30;84.00
72814;DHT22;60945;48.516;-2.768;2022-08-25T05:30:42;19.30;84.00
72814;DHT22;60945;48.516;-2.768;2022-08-25T05:33:11;19.10;84.70
72814;DHT22;60945;48.516;-2.768;2022-08-25T05:35:37;19.00;85.00
72814;DHT22;60945;48.516;-2.768;2022-08-25T05:38:03;19.10;84.70
72814;DHT22;60945;48.516;-2.768;2022-08-25T05:40:30;19.10;84.50
72814;DHT22;60945;48.516;-2.768;2022-08-25T05:42:56;19.20;83.90
72814;DHT22;60945;48.516;-2.768;2022-08-25T05:45:22;19.20;84.20
72814;DHT22;60945;48.516;-2.768;2022-08-25T05:47:48;19.20;83.90
72814;DHT22;60945;48.516;-2.768;2022-08-25T05:50:15;19.20;84.30
72814;DHT22;60945;48.516;-2.768;2022-08-25T05:52:40;19.20;84.20
72814;DHT22;60945;48.516;-2.768;2022-08-25T05:55:08;19.20;84.20
72814;DHT22;60945;48.516;-2.768;2022-08-25T05:57:35;19.30;84.00
72814;DHT22;60945;48.516;-2.768;2022-08-25T06:00:03;19.30;83.70
72814;DHT22;60945;48.516;-2.768;2022-08-25T06:02:28;19.40;83.50
72814;DHT22;60945;48.516;-2.768;2022-08-25T06:05:17;19.30;83.70
72814;DHT22;60945;48.516;-2.768;2022-08-25T06:07:44;19.30;83.80
72814;DHT22;60945;48.516;-2.768;2022-08-25T06:10:11;19.40;84.10
72814;DHT22;60945;48.516;-2.768;2022-08-25T06:12:40;19.30;83.50
72814;DHT22;60945;48.516;-2.768;2022-08-25T06:15:06;19.30;83.30
72814;DHT22;60945;48.516;-2.768;2022-08-25T06:17:32;19.30;83.60
72814;DHT22;60945;48.516;-2.768;2022-08-25T06:19:59;19.30;83.50
72814;DHT22;60945;48.516;-2.768;2022-08-25T06:22:25;19.30;83.70
72814;DHT22;60945;48.516;-2.768;2022-08-25T06:24:51;19.30;83.80
72814;DHT22;60945;48.516;-2.768;2022-08-25T06:27:17;19.30;83.90
72814;DHT22;60945;48.516;-2.768;2022-08-25T06:29:43;19.40;83.60
72814;DHT22;60945;48.516;-2.768;2022-08-25T06:32:09;19.50;83.40
72814;DHT22;60945;48.516;-2.768;2022-08-25T06:34:35;19.50;83.30
72814;DHT22;60945;48.516;-2.768;2022-08-25T06:37:01;19.50;83.40
72814;DHT22;60945;48.516;-2.768;2022-08-25T06:39:27;19.50;83.50
72814;DHT22;60945;48.516;-2.768;2022-08-25T06:41:54;19.50;83.50
72814;DHT22;60945;48.516;-2.768;2022-08-25T06:44:23;19.60;83.40
72814;DHT22;60945;48.516;-2.768;2022-08-25T06:46:49;19.60;83.30
72814;DHT22;60945;48.516;-2.768;2022-08-25T06:49:15;19.60;83.60
72814;DHT22;60945;48.516;-2.768;2022-08-25T06:51:41;19.60;83.50
72814;DHT22;60945;48.516;-2.768;2022-08-25T06:54:07;19.50;84.10
72814;DHT22;60945;48.516;-2.768;2022-08-25T06:56:35;19.40;84.40
72814;DHT22;60945;48.516;-2.768;2022-08-25T06:59:03;19.40;84.40
72814;DHT22;60945;48.516;-2.768;2022-08-25T07:01:29;19.50;83.50
72814;DHT22;60945;48.516;-2.768;2022-08-25T07:03:59;19.40;83.90
72814;DHT22;60945;48.516;-2.768;2022-08-25T07:06:26;19.50;83.70
72814;DHT22;60945;48.516;-2.768;2022-08-25T07:08:52;19.60;83.40
72814;DHT22;60945;48.516;-2.768;2022-08-25T07:11:19;19.70;83.20
72814;DHT22;60945;48.516;-2.768;2022-08-25T07:13:49;19.80;82.70
72814;DHT22;60945;48.516;-2.768;2022-08-25T07:16:16;19.90;81.90
72814;DHT22;60945;48.516;-2.768;2022-08-25T07:18:43;19.90;81.80
72814;DHT22;60945;48.516;-2.768;2022-08-25T07:21:09;20.00;81.90
72814;DHT22;60945;48.516;-2.768;2022-08-25T07:23:35;20.00;81.80
72814;DHT22;60945;48.516;-2.768;2022-08-25T07:26:29;20.00;81.60
72814;DHT22;60945;48.516;-2.768;2022-08-25T07:28:56;20.00;81.70
72814;DHT22;60945;48.516;-2.768;2022-08-25T07:31:23;19.90;82.20
72814;DHT22;60945;48.516;-2.768;2022-08-25T07:33:48;19.80;82.00
72814;DHT22;60945;48.516;-2.768;2022-08-25T07:36:32;19.70;82.60
72814;DHT22;60945;48.516;-2.768;2022-08-25T07:39:00;19.60;83.20
72814;DHT22;60945;48.516;-2.768;2022-08-25T07:41:30;19.60;82.80
72814;DHT22;60945;48.516;-2.768;2022-08-25T07:43:56;19.60;82.80
72814;DHT22;60945;48.516;-2.768;2022-08-25T07:46:22;19.70;82.40
72814;DHT22;60945;48.516;-2.768;2022-08-25T07:48:47;19.80;82.40
72814;DHT22;60945;48.516;-2.768;2022-08-25T07:51:16;19.90;81.10
72814;DHT22;60945;48.516;-2.768;2022-08-25T07:53:42;19.80;81.40
72814;DHT22;60945;48.516;-2.768;2022-08-25T07:56:13;19.80;81.50
72814;DHT22;60945;48.516;-2.768;2022-08-25T07:58:40;19.90;81.40
72814;DHT22;60945;48.516;-2.768;2022-08-25T08:01:06;19.80;81.10
72814;DHT22;60945;48.516;-2.768;2022-08-25T08:03:33;19.80;81.20
72814;DHT22;60945;48.516;-2.768;2022-08-25T08:06:00;19.80;80.80
72814;DHT22;60945;48.516;-2.768;2022-08-25T08:08:26;19.90;80.60
72814;DHT22;60945;48.516;-2.768;2022-08-25T08:10:52;19.90;80.40
72814;DHT22;60945;48.516;-2.768;2022-08-25T08:13:18;19.90;79.60
72814;DHT22;60945;48.516;-2.768;2022-08-25T08:15:45;20.10;78.90
72814;DHT22;60945;48.516;-2.768;2022-08-25T08:18:11;20.20;78.00
72814;DHT22;60945;48.516;-2.768;2022-08-25T08:20:36;20.00;79.00
72814;DHT22;60945;48.516;-2.768;2022-08-25T08:23:02;19.90;80.20
72814;DHT22;60945;48.516;-2.768;2022-08-25T08:25:28;19.90;80.10
72814;DHT22;60945;48.516;-2.768;2022-08-25T08:27:54;19.90;79.90
72814;DHT22;60945;48.516;-2.768;2022-08-25T08:30:21;19.70;80.70
72814;DHT22;60945;48.516;-2.768;2022-08-25T08:32:46;19.80;80.40
72814;DHT22;60945;48.516;-2.768;2022-08-25T08:35:17;19.90;80.40
72814;DHT22;60945;48.516;-2.768;2022-08-25T08:37:44;19.90;79.80
72814;DHT22;60945;48.516;-2.768;2022-08-25T08:40:13;20.10;79.20
72814;DHT22;60945;48.516;-2.768;2022-08-25T08:43:04;20.10;78.90
72814;DHT22;60945;48.516;-2.768;2022-08-25T08:45:36;19.90;78.30
72814;DHT22;60945;48.516;-2.768;2022-08-25T08:48:25;19.90;78.90
72814;DHT22;60945;48.516;-2.768;2022-08-25T08:54:07;19.70;80.70
72814;DHT22;60945;48.516;-2.768;2022-08-25T08:56:38;19.50;81.40
72814;DHT22;60945;48.516;-2.768;2022-08-25T08:59:09;19.50;81.90
72814;DHT22;60945;48.516;-2.768;2022-08-25T09:01:56;19.40;82.40
72814;DHT22;60945;48.516;-2.768;2022-08-25T09:04:42;19.60;81.50
72814;DHT22;60945;48.516;-2.768;2022-08-25T09:07:18;19.70;80.90
72814;DHT22;60945;48.516;-2.768;2022-08-25T09:09:45;19.70;81.00
72814;DHT22;60945;48.516;-2.768;2022-08-25T09:12:33;19.70;81.10
72814;DHT22;60945;48.516;-2.768;2022-08-25T09:18:17;19.60;80.80
72814;DHT22;60945;48.516;-2.768;2022-08-25T09:21:04;19.60;80.70
72814;DHT22;60945;48.516;-2.768;2022-08-25T09:24:08;19.50;81.10
72814;DHT22;60945;48.516;-2.768;2022-08-25T09:26:42;19.50;80.80
72814;DHT22;60945;48.516;-2.768;2022-08-25T09:29:13;19.50;81.00
72814;DHT22;60945;48.516;-2.768;2022-08-25T09:31:43;19.60;80.70
72814;DHT22;60945;48.516;-2.768;2022-08-25T09:34:22;19.50;81.00
72814;DHT22;60945;48.516;-2.768;2022-08-25T09:36:49;19.40;82.10
72814;DHT22;60945;48.516;-2.768;2022-08-25T09:39:18;19.50;81.90
72814;DHT22;60945;48.516;-2.768;2022-08-25T09:44:39;19.30;83.20
72814;DHT22;60945;48.516;-2.768;2022-08-25T09:52:34;19.50;83.80
72814;DHT22;60945;48.516;-2.768;2022-08-25T09:57:55;19.70;82.60
72814;DHT22;60945;48.516;-2.768;2022-08-25T10:00:30;19.50;82.50
72814;DHT22;60945;48.516;-2.768;2022-08-25T10:03:11;19.50;82.50
72814;DHT22;60945;48.516;-2.768;2022-08-25T10:05:56;19.50;81.80
72814;DHT22;60945;48.516;-2.768;2022-08-25T10:11:14;19.40;82.20
72814;DHT22;60945;48.516;-2.768;2022-08-25T10:14:02;19.50;82.40
72814;DHT22;60945;48.516;-2.768;2022-08-25T10:16:30;19.60;80.50
72814;DHT22;60945;48.516;-2.768;2022-08-25T10:21:29;19.80;80.20
72814;DHT22;60945;48.516;-2.768;2022-08-25T10:23:55;19.80;79.40
72814;DHT22;60945;48.516;-2.768;2022-08-25T10:31:43;20.30;78.00
72814;DHT22;60945;48.516;-2.768;2022-08-25T10:34:21;20.60;76.50
72814;DHT22;60945;48.516;-2.768;2022-08-25T10:45:25;21.60;71.60
72814;DHT22;60945;48.516;-2.768;2022-08-25T10:54:04;22.30;68.70
72814;DHT22;60945;48.516;-2.768;2022-08-25T10:56:35;22.40;68.10
72814;DHT22;60945;48.516;-2.768;2022-08-25T11:02:23;22.70;67.00
72814;DHT22;60945;48.516;-2.768;2022-08-25T11:05:02;22.20;68.20
72814;DHT22;60945;48.516;-2.768;2022-08-25T11:07:39;22.20;68.30
72814;DHT22;60945;48.516;-2.768;2022-08-25T11:10:24;22.30;67.70
72814;DHT22;60945;48.516;-2.768;2022-08-25T11:12:59;22.30;68.50
72814;DHT22;60945;48.516;-2.768;2022-08-25T11:15:52;22.50;66.70
72814;DHT22;60945;48.516;-2.768;2022-08-25T11:18:16;22.30;67.20
72814;DHT22;60945;48.516;-2.768;2022-08-25T11:26:10;21.70;68.60
72814;DHT22;60945;48.516;-2.768;2022-08-25T11:31:08;21.80;68.20
72814;DHT22;60945;48.516;-2.768;2022-08-25T11:33:35;21.70;68.60
72814;DHT22;60945;48.516;-2.768;2022-08-25T11:36:05;21.80;67.90
72814;DHT22;60945;48.516;-2.768;2022-08-25T11:38:47;21.70;67.60
72814;DHT22;60945;48.516;-2.768;2022-08-25T11:41:49;21.60;68.40
72814;DHT22;60945;48.516;-2.768;2022-08-25T11:50:01;21.80;68.20
72814;DHT22;60945;48.516;-2.768;2022-08-25T11:55:14;22.00;67.20
72814;DHT22;60945;48.516;-2.768;2022-08-25T11:57:41;22.30;66.10
72814;DHT22;60945;48.516;-2.768;2022-08-25T12:02:47;22.10;65.90
72814;DHT22;60945;48.516;-2.768;2022-08-25T12:15:21;21.90;67.20
72814;DHT22;60945;48.516;-2.768;2022-08-25T12:23:43;21.30;68.80
72814;DHT22;60945;48.516;-2.768;2022-08-25T12:34:15;24.10;59.20
72814;DHT22;60945;48.516;-2.768;2022-08-25T12:37:03;23.40;61.60
72814;DHT22;60945;48.516;-2.768;2022-08-25T12:39:35;22.80;63.00
72814;DHT22;60945;48.516;-2.768;2022-08-25T12:42:06;22.10;64.70
72814;DHT22;60945;48.516;-2.768;2022-08-25T12:44:46;22.10;64.80
72814;DHT22;60945;48.516;-2.768;2022-08-25T12:49:38;22.20;64.10
72814;DHT22;60945;48.516;-2.768;2022-08-25T12:52:05;22.10;64.40
72814;DHT22;60945;48.516;-2.768;2022-08-25T12:54:45;22.20;64.30
72814;DHT22;60945;48.516;-2.768;2022-08-25T12:57:32;22.60;63.40
72814;DHT22;60945;48.516;-2.768;2022-08-25T13:00:09;23.10;62.00
72814;DHT22;60945;48.516;-2.768;2022-08-25T13:03:06;22.70;62.40
72814;DHT22;60945;48.516;-2.768;2022-08-25T13:06:19;22.40;63.30
72814;DHT22;60945;48.516;-2.768;2022-08-25T13:11:53;22.30;62.80
72814;DHT22;60945;48.516;-2.768;2022-08-25T13:16:58;22.40;62.70
72814;DHT22;60945;48.516;-2.768;2022-08-25T13:19:25;22.40;62.80
72814;DHT22;60945;48.516;-2.768;2022-08-25T13:21:53;22.10;63.20
72814;DHT22;60945;48.516;-2.768;2022-08-25T13:24:23;21.90;64.00
72814;DHT22;60945;48.516;-2.768;2022-08-25T13:26:56;22.10;63.10
72814;DHT22;60945;48.516;-2.768;2022-08-25T13:29:24;22.30;62.70
72814;DHT22;60945;48.516;-2.768;2022-08-25T13:31:57;22.50;61.70
72814;DHT22;60945;48.516;-2.768;2022-08-25T13:34:34;22.60;61.80
72814;DHT22;60945;48.516;-2.768;2022-08-25T13:37:22;22.40;62.50
72814;DHT22;60945;48.516;-2.768;2022-08-25T13:40:15;22.40;62.30
72814;DHT22;60945;48.516;-2.768;2022-08-25T13:42:48;22.20;62.60
72814;DHT22;60945;48.516;-2.768;2022-08-25T13:45:17;21.80;63.00
72814;DHT22;60945;48.516;-2.768;2022-08-25T13:47:45;21.80;63.10
72814;DHT22;60945;48.516;-2.768;2022-08-25T13:53:12;21.80;62.40
72814;DHT22;60945;48.516;-2.768;2022-08-25T13:55:50;21.60;62.60
72814;DHT22;60945;48.516;-2.768;2022-08-25T13:58:23;21.60;62.60
72814;DHT22;60945;48.516;-2.768;2022-08-25T14:01:10;21.50;62.90
72814;DHT22;60945;48.516;-2.768;2022-08-25T14:03:41;21.60;62.80
72814;DHT22;60945;48.516;-2.768;2022-08-25T14:08:46;21.60;62.10
72814;DHT22;60945;48.516;-2.768;2022-08-25T14:11:28;21.70;61.90
72814;DHT22;60945;48.516;-2.768;2022-08-25T14:14:00;21.90;61.20
72814;DHT22;60945;48.516;-2.768;2022-08-25T14:16:27;21.80;60.80
72814;DHT22;60945;48.516;-2.768;2022-08-25T14:18:54;21.80;60.80
72814;DHT22;60945;48.516;-2.768;2022-08-25T14:21:24;22.00;60.10
72814;DHT22;60945;48.516;-2.768;2022-08-25T14:23:52;22.20;59.90
72814;DHT22;60945;48.516;-2.768;2022-08-25T14:26:18;22.30;59.20
72814;DHT22;60945;48.516;-2.768;2022-08-25T14:28:46;22.30;58.70
72814;DHT22;60945;48.516;-2.768;2022-08-25T14:31:25;22.40;58.30
72814;DHT22;60945;48.516;-2.768;2022-08-25T14:36:24;22.30;58.50
72814;DHT22;60945;48.516;-2.768;2022-08-25T14:38:50;22.20;58.70
72814;DHT22;60945;48.516;-2.768;2022-08-25T14:41:16;22.20;58.30
72814;DHT22;60945;48.516;-2.768;2022-08-25T14:43:42;21.90;59.30
72814;DHT22;60945;48.516;-2.768;2022-08-25T14:46:22;21.80;59.50
72814;DHT22;60945;48.516;-2.768;2022-08-25T14:48:52;21.80;59.60
72814;DHT22;60945;48.516;-2.768;2022-08-25T14:51:20;22.70;57.00
72814;DHT22;60945;48.516;-2.768;2022-08-25T14:53:46;22.80;55.80
72814;DHT22;60945;48.516;-2.768;2022-08-25T14:56:12;23.20;55.40
72814;DHT22;60945;48.516;-2.768;2022-08-25T14:58:38;23.30;54.90
72814;DHT22;60945;48.516;-2.768;2022-08-25T15:01:05;22.60;57.60
72814;DHT22;60945;48.516;-2.768;2022-08-25T15:03:37;22.40;58.70
72814;DHT22;60945;48.516;-2.768;2022-08-25T15:06:04;22.10;59.60
72814;DHT22;60945;48.516;-2.768;2022-08-25T15:08:30;22.10;59.70
72814;DHT22;60945;48.516;-2.768;2022-08-25T15:11:14;26.40;51.20
72814;DHT22;60945;48.516;-2.768;2022-08-25T15:13:41;30.70;40.40
72814;DHT22;60945;48.516;-2.768;2022-08-25T15:16:16;29.60;40.50
72814;DHT22;60945;48.516;-2.768;2022-08-25T15:18:45;28.80;42.10
72814;DHT22;60945;48.516;-2.768;2022-08-25T15:21:10;26.70;46.20
72814;DHT22;60945;48.516;-2.768;2022-08-25T15:23:37;24.80;50.60
72814;DHT22;60945;48.516;-2.768;2022-08-25T15:26:02;23.60;53.80
72814;DHT22;60945;48.516;-2.768;2022-08-25T15:28:28;23.40;54.40
72814;DHT22;60945;48.516;-2.768;2022-08-25T15:30:55;22.80;56.10
72814;DHT22;60945;48.516;-2.768;2022-08-25T15:33:20;22.60;56.20
72814;DHT22;60945;48.516;-2.768;2022-08-25T15:35:47;22.30;56.90
72814;DHT22;60945;48.516;-2.768;2022-08-25T15:38:12;22.10;56.90
72814;DHT22;60945;48.516;-2.768;2022-08-25T15:40:38;22.00;57.00
72814;DHT22;60945;48.516;-2.768;2022-08-25T15:43:04;21.70;57.50
72814;DHT22;60945;48.516;-2.768;2022-08-25T15:45:30;21.70;57.20
72814;DHT22;60945;48.516;-2.768;2022-08-25T15:47:56;21.50;57.70
72814;DHT22;60945;48.516;-2.768;2022-08-25T15:50:22;21.50;57.50
72814;DHT22;60945;48.516;-2.768;2022-08-25T15:52:48;21.50;57.50
72814;DHT22;60945;48.516;-2.768;2022-08-25T15:55:14;21.30;58.10
72814;DHT22;60945;48.516;-2.768;2022-08-25T15:57:41;21.30;58.60
72814;DHT22;60945;48.516;-2.768;2022-08-25T16:00:08;21.30;58.50
72814;DHT22;60945;48.516;-2.768;2022-08-25T16:02:37;21.10;58.90
72814;DHT22;60945;48.516;-2.768;2022-08-25T16:05:05;21.10;59.60
72814;DHT22;60945;48.516;-2.768;2022-08-25T16:07:31;20.90;59.90
72814;DHT22;60945;48.516;-2.768;2022-08-25T16:09:58;20.80;60.70
72814;DHT22;60945;48.516;-2.768;2022-08-25T16:12:27;20.70;61.40
72814;DHT22;60945;48.516;-2.768;2022-08-25T16:14:53;20.50;61.50
72814;DHT22;60945;48.516;-2.768;2022-08-25T16:17:18;20.70;61.30
72814;DHT22;60945;48.516;-2.768;2022-08-25T16:19:45;21.20;59.30
72814;DHT22;60945;48.516;-2.768;2022-08-25T16:22:11;21.30;58.90
72814;DHT22;60945;48.516;-2.768;2022-08-25T16:24:41;21.30;58.70
72814;DHT22;60945;48.516;-2.768;2022-08-25T16:27:10;21.30;59.20
72814;DHT22;60945;48.516;-2.768;2022-08-25T16:29:37;21.10;59.50
72814;DHT22;60945;48.516;-2.768;2022-08-25T16:32:04;21.00;59.70
72814;DHT22;60945;48.516;-2.768;2022-08-25T16:34:30;21.00;59.70
72814;DHT22;60945;48.516;-2.768;2022-08-25T16:36:56;20.90;59.90
72814;DHT22;60945;48.516;-2.768;2022-08-25T16:39:23;20.60;60.60
72814;DHT22;60945;48.516;-2.768;2022-08-25T16:41:48;20.60;60.90
72814;DHT22;60945;48.516;-2.768;2022-08-25T16:44:15;20.50;61.30
72814;DHT22;60945;48.516;-2.768;2022-08-25T16:46:41;20.40;61.90
72814;DHT22;60945;48.516;-2.768;2022-08-25T16:49:08;20.30;62.00
72814;DHT22;60945;48.516;-2.768;2022-08-25T16:51:35;20.30;62.50
72814;DHT22;60945;48.516;-2.768;2022-08-25T16:54:01;20.20;63.10
72814;DHT22;60945;48.516;-2.768;2022-08-25T16:56:45;20.10;63.40
72814;DHT22;60945;48.516;-2.768;2022-08-25T16:59:12;20.10;62.40
72814;DHT22;60945;48.516;-2.768;2022-08-25T17:01:40;20.10;63.10
72814;DHT22;60945;48.516;-2.768;2022-08-25T17:04:07;19.90;63.70
72814;DHT22;60945;48.516;-2.768;2022-08-25T17:06:35;19.90;64.20
72814;DHT22;60945;48.516;-2.768;2022-08-25T17:09:04;19.90;64.50
72814;DHT22;60945;48.516;-2.768;2022-08-25T17:11:33;20.00;63.00
72814;DHT22;60945;48.516;-2.768;2022-08-25T17:14:04;19.90;62.70
72814;DHT22;60945;48.516;-2.768;2022-08-25T17:16:32;20.00;60.70